createdAt,value
2023-03-27T00:01:32.563Z,68.07
2023-03-27T00:04:22.169Z,68.55
2023-03-27T00:07:13.076Z,68.05
2023-03-27T00:10:02.253Z,68.28
2023-03-27T00:12:52.435Z,68.16
2023-03-27T00:15:41.742Z,68.83
2023-03-27T00:18:31.086Z,68.29
2023-03-27T00:21:20.940Z,68.67
2023-03-27T00:24:12.003Z,69.33
2023-03-27T00:27:01.729Z,69.21
2023-03-27T00:29:50.849Z,68.65
2023-03-27T00:32:40.144Z,69.13
2023-03-27T00:35:31.569Z,68.56
2023-03-27T00:38:21.158Z,68.64
2023-03-27T00:41:12.793Z,68.91
2023-03-27T00:44:04.243Z,68.91
2023-03-27T00:46:57.138Z,68.32
2023-03-27T00:49:46.486Z,69.55
2023-03-27T00:52:37.273Z,69.59
2023-03-27T00:55:30.860Z,69.00
2023-03-27T00:58:26.686Z,69.00
2023-03-27T01:01:18.557Z,68.71
2023-03-27T01:04:09.445Z,69.08
2023-03-27T01:07:00.995Z,69.56
2023-03-27T01:09:51.124Z,69.07
2023-03-27T01:12:51.373Z,69.35
2023-03-27T01:15:49.107Z,69.89
2023-03-27T01:18:54.654Z,69.75
2023-03-27T01:22:33.786Z,69.20
2023-03-27T01:26:35.685Z,68.86
2023-03-27T01:29:49.393Z,69.57
2023-03-27T01:33:08.632Z,69.18
2023-03-27T01:36:34.972Z,69.37
2023-03-27T01:39:37.242Z,69.95
2023-03-27T01:42:33.934Z,69.18
2023-03-27T01:45:31.868Z,69.07
2023-03-27T01:48:27.758Z,69.29
2023-03-27T01:51:22.132Z,69.71
2023-03-27T01:54:17.890Z,69.90
2023-03-27T01:57:17.867Z,70.40
2023-03-27T02:00:19.409Z,70.08
2023-03-27T02:03:15.568Z,69.76
2023-03-27T02:06:09.740Z,70.50
2023-03-27T02:09:05.159Z,70.44
2023-03-27T02:12:01.616Z,70.75
2023-03-27T02:14:57.654Z,71.05
2023-03-27T02:18:13.651Z,70.07
2023-03-27T02:21:03.535Z,70.24
2023-03-27T02:23:55.456Z,70.61
2023-03-27T02:26:45.753Z,69.93
2023-03-27T02:29:49.264Z,70.16
2023-03-27T02:32:50.277Z,70.52
2023-03-27T02:35:56.530Z,70.89
2023-03-27T02:38:52.781Z,70.72
2023-03-27T02:41:51.757Z,71.55
2023-03-27T02:45:10.296Z,71.26
2023-03-27T02:48:07.975Z,70.91
2023-03-27T02:51:03.027Z,71.18
2023-03-27T02:53:57.857Z,71.00
2023-03-27T02:56:54.443Z,71.46
2023-03-27T02:59:54.837Z,70.68
2023-03-27T03:02:45.956Z,70.17
2023-03-27T03:05:38.214Z,72.05
2023-03-27T03:08:30.537Z,71.61
2023-03-27T03:11:23.764Z,71.90
2023-03-27T03:14:13.269Z,71.72
2023-03-27T03:17:02.673Z,70.87
2023-03-27T03:19:51.927Z,71.37
2023-03-27T03:22:42.922Z,70.53
2023-03-27T03:25:32.350Z,71.47
2023-03-27T03:28:22.320Z,71.97
2023-03-27T03:31:11.940Z,71.46
2023-03-27T03:34:02.465Z,71.83
2023-03-27T03:36:55.259Z,71.58
2023-03-27T03:39:52.494Z,71.26
2023-03-27T03:42:46.749Z,72.04
2023-03-27T03:45:36.311Z,71.79
2023-03-27T03:48:26.202Z,71.98
2023-03-27T03:51:15.628Z,71.69
2023-03-27T03:54:06.832Z,72.19
2023-03-27T03:56:57.725Z,71.84
2023-03-27T03:59:48.218Z,72.19
2023-03-27T04:03:07.478Z,72.00
2023-03-27T04:05:57.563Z,72.01
2023-03-27T04:08:47.617Z,71.81
2023-03-27T04:12:00.321Z,71.83
2023-03-27T04:15:10.442Z,72.63
2023-03-27T04:18:19.860Z,72.46
2023-03-27T04:21:14.886Z,72.80
2023-03-27T04:24:04.973Z,72.94
2023-03-27T04:27:08.407Z,73.21
2023-03-27T04:30:04.992Z,72.34
2023-03-27T04:33:30.612Z,72.90
2023-03-27T04:36:39.714Z,72.05
2023-03-27T04:39:39.849Z,72.98
2023-03-27T04:42:32.289Z,73.18
2023-03-27T04:45:22.764Z,72.83
2023-03-27T04:48:13.509Z,73.22
2023-03-27T04:51:03.248Z,73.24
2023-03-27T04:53:57.355Z,72.41
2023-03-27T04:56:48.114Z,72.52
2023-03-27T04:59:40.515Z,72.62
2023-03-27T05:02:48.893Z,72.27
2023-03-27T05:05:55.226Z,72.78
2023-03-27T05:08:44.695Z,73.12
2023-03-27T05:11:49.731Z,72.46
2023-03-27T05:14:40.511Z,72.63
2023-03-27T05:17:40.997Z,72.91
2023-03-27T05:20:31.597Z,73.14
2023-03-27T05:23:29.325Z,72.68
2023-03-27T05:26:19.199Z,72.80
2023-03-27T05:29:12.869Z,73.12
2023-03-27T05:32:07.945Z,73.17
2023-03-27T05:35:07.949Z,73.07
2023-03-27T05:38:02.629Z,73.02
2023-03-27T05:40:56.778Z,73.15
2023-03-27T05:43:47.903Z,72.96
2023-03-27T05:46:39.844Z,73.80
2023-03-27T05:49:37.653Z,73.36
2023-03-27T05:52:35.111Z,73.62
2023-03-27T05:55:28.046Z,73.68
2023-03-27T05:58:18.537Z,73.20
2023-03-27T06:01:11.205Z,73.89
2023-03-27T06:04:01.118Z,73.05
2023-03-27T06:07:10.518Z,74.11
2023-03-27T06:10:00.472Z,73.65
2023-03-27T06:13:01.645Z,73.81
2023-03-27T06:16:08.583Z,73.42
2023-03-27T06:19:07.493Z,73.84
2023-03-27T06:22:09.191Z,74.06
2023-03-27T06:25:12.108Z,74.59
2023-03-27T06:28:08.244Z,74.51
2023-03-27T06:31:10.059Z,73.64
2023-03-27T06:34:02.848Z,73.52
2023-03-27T06:37:10.560Z,73.72
2023-03-27T06:40:09.905Z,73.57
2023-03-27T06:43:02.744Z,73.70
2023-03-27T06:46:08.876Z,73.94
2023-03-27T06:49:26.782Z,73.80
2023-03-27T06:52:16.494Z,74.24
2023-03-27T06:55:14.925Z,74.17
2023-03-27T06:58:14.304Z,74.39
2023-03-27T07:01:07.161Z,75.38
2023-03-27T07:04:13.775Z,75.28
2023-03-27T07:07:31.721Z,75.84
2023-03-27T07:10:23.300Z,74.71
2023-03-27T07:13:16.685Z,75.13
2023-03-27T07:16:16.992Z,76.28
2023-03-27T07:19:10.012Z,76.96
2023-03-27T07:22:03.953Z,76.99
2023-03-27T07:24:55.878Z,76.62
2023-03-27T07:27:48.147Z,76.25
2023-03-27T07:30:39.330Z,77.97
2023-03-27T07:33:28.749Z,78.79
2023-03-27T07:36:19.488Z,78.81
2023-03-27T07:39:15.241Z,75.42
2023-03-27T07:42:04.885Z,74.08
2023-03-27T07:45:11.276Z,72.36
2023-03-27T07:48:07.145Z,75.19
2023-03-27T07:51:10.883Z,77.46
2023-03-27T07:54:04.548Z,75.51
2023-03-27T07:56:58.511Z,75.32
2023-03-27T07:59:54.647Z,75.74
2023-03-27T08:02:54.822Z,74.31
2023-03-27T08:05:44.651Z,74.68
2023-03-27T08:08:36.919Z,75.12
2023-03-27T08:11:31.077Z,70.70
2023-03-27T08:14:21.072Z,71.33
2023-03-27T08:17:16.267Z,70.06
2023-03-27T08:20:10.354Z,65.79
2023-03-27T08:23:07.689Z,69.96
2023-03-27T08:26:23.179Z,68.58
2023-03-27T08:29:17.587Z,65.81
2023-03-27T08:32:10.860Z,63.60
2023-03-27T08:35:03.826Z,64.05
2023-03-27T08:37:54.565Z,64.48
2023-03-27T08:40:50.264Z,61.13
2023-03-27T08:43:50.241Z,61.83
2023-03-27T08:46:46.920Z,59.07
2023-03-27T08:49:42.654Z,58.03
2023-03-27T08:53:18.713Z,57.23
2023-03-27T08:56:11.720Z,55.76
2023-03-27T08:59:03.559Z,54.14
2023-03-27T09:02:14.434Z,53.87
2023-03-27T09:05:11.387Z,54.97
2023-03-27T09:08:15.259Z,53.16
2023-03-27T09:11:15.320Z,51.47
2023-03-27T09:14:27.259Z,49.41
2023-03-27T09:17:22.289Z,50.14
2023-03-27T09:20:20.561Z,49.07
2023-03-27T09:23:21.998Z,48.81
2023-03-27T09:26:36.142Z,47.15
2023-03-27T09:29:45.424Z,46.63
2023-03-27T09:33:05.907Z,46.01
2023-03-27T09:35:57.807Z,45.31
2023-03-27T09:38:53.025Z,45.09
2023-03-27T09:41:50.190Z,45.27
2023-03-27T09:44:42.854Z,46.31
2023-03-27T09:47:38.392Z,46.08
2023-03-27T09:50:37.044Z,45.74
2023-03-27T09:53:40.884Z,45.91
2023-03-27T09:56:41.705Z,45.44
2023-03-27T09:59:34.926Z,44.66
2023-03-27T10:02:32.229Z,44.56
2023-03-27T10:05:25.271Z,43.62
2023-03-27T10:08:42.070Z,42.77
2023-03-27T10:11:40.263Z,42.41
2023-03-27T10:14:37.529Z,41.96
2023-03-27T10:17:30.652Z,40.57
2023-03-27T10:20:30.342Z,41.07
2023-03-27T10:23:27.723Z,40.76
2023-03-27T10:26:22.340Z,39.83
2023-03-27T10:29:25.832Z,40.51
2023-03-27T10:32:15.485Z,39.92
2023-03-27T10:35:05.557Z,39.54
2023-03-27T10:38:15.956Z,39.76
2023-03-27T10:41:29.193Z,38.93
2023-03-27T10:44:26.337Z,38.27
2023-03-27T10:47:23.686Z,38.47
2023-03-27T10:50:21.069Z,37.63
2023-03-27T10:53:22.039Z,38.27
2023-03-27T10:56:32.890Z,38.13
2023-03-27T10:59:41.046Z,38.71
2023-03-27T11:02:47.855Z,39.29
2023-03-27T11:05:42.809Z,39.45
2023-03-27T11:08:54.613Z,39.53
2023-03-27T11:11:53.271Z,39.88
2023-03-27T11:14:52.182Z,39.96
2023-03-27T11:17:54.149Z,39.25
2023-03-27T11:21:08.766Z,39.18
2023-03-27T11:24:24.718Z,39.03
2023-03-27T11:27:28.200Z,39.86
2023-03-27T11:30:38.027Z,39.72
2023-03-27T11:33:40.274Z,40.07
2023-03-27T11:36:43.601Z,41.08
2023-03-27T11:39:48.394Z,42.39
2023-03-27T11:42:44.864Z,43.27
2023-03-27T11:45:48.196Z,44.82
2023-03-27T11:49:01.006Z,45.68
2023-03-27T11:52:07.133Z,46.05
2023-03-27T11:55:17.612Z,46.75
2023-03-27T11:58:26.799Z,47.62
2023-03-27T12:01:27.145Z,48.50
2023-03-27T12:04:40.373Z,48.84
2023-03-27T12:08:07.013Z,49.80
2023-03-27T12:11:00.642Z,50.09
2023-03-27T12:14:40.503Z,50.67
2023-03-27T12:17:54.267Z,51.26
2023-03-27T12:20:58.837Z,50.01
2023-03-27T12:24:20.241Z,49.74
2023-03-27T12:27:48.237Z,48.70
2023-03-27T12:31:21.123Z,47.91
2023-03-27T12:34:27.963Z,47.60
2023-03-27T12:37:20.338Z,47.93
2023-03-27T12:40:30.509Z,45.44
2023-03-27T12:43:29.988Z,45.77
2023-03-27T12:46:39.490Z,46.39
2023-03-27T12:49:57.969Z,47.02
2023-03-27T12:52:56.855Z,46.74
2023-03-27T12:56:27.933Z,47.04
2023-03-27T12:59:24.683Z,46.04
2023-03-27T13:02:58.006Z,44.33
2023-03-27T13:06:23.536Z,42.98
2023-03-27T13:09:43.576Z,41.79
2023-03-27T13:12:55.287Z,41.64
2023-03-27T13:16:15.859Z,43.29
2023-03-27T13:19:32.885Z,44.42
2023-03-27T13:23:25.684Z,44.98
2023-03-27T13:26:34.508Z,44.76
2023-03-27T13:29:27.151Z,44.95
2023-03-27T13:32:35.707Z,45.74
2023-03-27T13:36:05.341Z,45.18
2023-03-27T13:39:22.239Z,45.36
2023-03-27T13:42:22.529Z,45.54
2023-03-27T13:45:21.444Z,45.57
2023-03-27T13:49:05.032Z,44.33
2023-03-27T13:52:51.848Z,43.29
2023-03-27T13:56:54.802Z,40.60
2023-03-27T14:00:59.788Z,40.83
2023-03-27T14:04:29.743Z,40.33
2023-03-27T14:08:06.024Z,40.02
2023-03-27T14:11:44.686Z,41.27
2023-03-27T14:15:03.822Z,42.19
2023-03-27T14:18:27.111Z,42.68
2023-03-27T14:21:31.459Z,43.03
2023-03-27T14:24:34.777Z,43.49
2023-03-27T14:27:37.523Z,44.61
2023-03-27T14:30:29.573Z,44.32
2023-03-27T14:33:51.370Z,45.05
2023-03-27T14:36:47.607Z,44.94
2023-03-27T14:39:55.654Z,45.90
2023-03-27T14:42:52.755Z,46.12
2023-03-27T14:45:43.443Z,46.18
2023-03-27T14:48:37.527Z,46.34
2023-03-27T14:51:37.397Z,45.71
2023-03-27T14:54:34.898Z,46.18
2023-03-27T14:57:29.788Z,45.88
2023-03-27T15:00:27.117Z,45.75
2023-03-27T15:03:20.134Z,46.05
2023-03-27T15:06:17.084Z,45.48
2023-03-27T15:09:16.529Z,45.36
2023-03-27T15:12:32.062Z,43.42
2023-03-27T15:15:34.649Z,43.28
2023-03-27T15:18:31.403Z,43.26
2023-03-27T15:21:34.838Z,43.60
2023-03-27T15:24:32.856Z,42.70
2023-03-27T15:27:28.401Z,42.07
2023-03-27T15:30:28.462Z,42.14
2023-03-27T15:33:22.950Z,41.53
2023-03-27T15:36:26.324Z,40.96
2023-03-27T15:39:21.850Z,40.45
2023-03-27T15:42:15.530Z,40.68
2023-03-27T15:45:05.853Z,40.17
2023-03-27T15:48:06.763Z,39.60
2023-03-27T15:50:58.336Z,40.01
2023-03-27T15:53:49.719Z,40.05
2023-03-27T15:56:43.103Z,39.63
2023-03-27T15:59:34.595Z,40.68
2023-03-27T16:02:26.552Z,40.84
2023-03-27T16:05:20.340Z,41.12
2023-03-27T16:08:10.842Z,41.26
2023-03-27T16:11:00.905Z,41.35
2023-03-27T16:13:56.889Z,41.36
2023-03-27T16:16:46.291Z,41.40
2023-03-27T16:19:44.157Z,41.09
2023-03-27T16:22:37.308Z,40.64
2023-03-27T16:25:26.510Z,40.72
2023-03-27T16:28:17.788Z,39.23
2023-03-27T16:31:16.639Z,39.30
2023-03-27T16:34:22.983Z,39.06
2023-03-27T16:37:13.435Z,39.34
2023-03-27T16:40:04.199Z,40.02
2023-03-27T16:42:56.277Z,40.07
2023-03-27T16:45:47.317Z,40.03
2023-03-27T16:48:36.538Z,40.01
2023-03-27T16:51:28.453Z,40.52
2023-03-27T16:54:17.618Z,40.81
2023-03-27T16:57:08.688Z,41.86
2023-03-27T16:59:58.516Z,42.01
2023-03-27T17:02:48.855Z,42.55
2023-03-27T17:05:38.071Z,42.14
2023-03-27T17:08:30.337Z,43.17
2023-03-27T17:11:19.496Z,43.11
2023-03-27T17:14:10.656Z,43.13
2023-03-27T17:16:59.938Z,43.97
2023-03-27T17:19:49.140Z,44.14
2023-03-27T17:22:38.448Z,43.99
2023-03-27T17:25:27.912Z,43.79
2023-03-27T17:28:17.294Z,44.18
2023-03-27T17:31:08.045Z,43.93
2023-03-27T17:33:57.354Z,43.92
2023-03-27T17:36:52.560Z,44.02
2023-03-27T17:39:43.906Z,44.29
2023-03-27T17:42:33.145Z,44.39
2023-03-27T17:45:23.927Z,44.95
2023-03-27T17:48:14.753Z,44.99
2023-03-27T17:51:09.377Z,44.82
2023-03-27T17:53:59.272Z,45.35
2023-03-27T17:56:48.632Z,45.12
2023-03-27T17:59:38.518Z,45.48
2023-03-27T18:02:27.846Z,45.37
2023-03-27T18:05:18.767Z,45.87
2023-03-27T18:08:09.969Z,46.26
2023-03-27T18:10:59.356Z,46.35
2023-03-27T18:13:52.669Z,46.54
2023-03-27T18:16:42.131Z,46.50
2023-03-27T18:19:31.389Z,46.72
2023-03-27T18:22:22.107Z,47.07
2023-03-27T18:25:12.385Z,47.48
2023-03-27T18:28:01.611Z,47.13
2023-03-27T18:31:02.080Z,47.44
2023-03-27T18:33:51.379Z,47.83
2023-03-27T18:36:40.631Z,48.01
2023-03-27T18:39:31.540Z,48.28
2023-03-27T18:42:20.936Z,48.84
2023-03-27T18:45:12.695Z,49.28
2023-03-27T18:48:02.264Z,49.38
2023-03-27T18:50:56.398Z,49.18
2023-03-27T18:53:45.766Z,49.13
2023-03-27T18:56:37.876Z,49.47
2023-03-27T18:59:27.333Z,49.86
2023-03-27T19:02:17.266Z,49.89
2023-03-27T19:05:08.610Z,50.27
2023-03-27T19:07:59.458Z,50.55
2023-03-27T19:10:48.707Z,50.65
2023-03-27T19:13:46.272Z,51.06
2023-03-27T19:16:58.667Z,51.28
2023-03-27T19:19:57.131Z,51.17
2023-03-27T19:23:11.582Z,51.41
2023-03-27T19:26:09.520Z,51.64
2023-03-27T19:29:04.497Z,51.84
2023-03-27T19:31:54.527Z,52.34
2023-03-27T19:34:44.074Z,52.23
2023-03-27T19:37:33.447Z,52.65
2023-03-27T19:40:22.917Z,52.90
2023-03-27T19:43:12.143Z,52.93
2023-03-27T19:46:14.999Z,52.82
2023-03-27T19:49:05.425Z,52.85
2023-03-27T19:52:20.908Z,53.34
2023-03-27T19:55:11.267Z,53.27
2023-03-27T19:58:00.479Z,53.00
2023-03-27T20:00:52.408Z,53.12
2023-03-27T20:03:43.573Z,52.93
2023-03-27T20:06:34.048Z,53.09
2023-03-27T20:09:23.295Z,53.36
2023-03-27T20:12:13.497Z,53.71
2023-03-27T20:15:11.655Z,53.38
2023-03-27T20:18:04.910Z,53.82
2023-03-27T20:20:56.297Z,54.58
2023-03-27T20:23:45.781Z,54.37
2023-03-27T20:26:48.289Z,54.90
2023-03-27T20:29:42.360Z,55.30
2023-03-27T20:32:32.226Z,56.57
2023-03-27T20:35:24.757Z,56.51
2023-03-27T20:38:16.079Z,57.52
2023-03-27T20:41:07.914Z,57.32
2023-03-27T20:43:58.849Z,57.64
2023-03-27T20:46:51.746Z,58.18
2023-03-27T20:49:43.573Z,59.05
2023-03-27T20:52:32.929Z,59.64
2023-03-27T20:55:33.721Z,60.30
2023-03-27T20:58:26.017Z,60.03
2023-03-27T21:01:19.492Z,60.11
2023-03-27T21:04:09.963Z,60.15
2023-03-27T21:07:00.227Z,60.40
2023-03-27T21:09:49.455Z,61.25
2023-03-27T21:12:40.891Z,61.03
2023-03-27T21:15:30.498Z,61.39
2023-03-27T21:18:20.065Z,61.33
2023-03-27T21:21:09.498Z,61.76
2023-03-27T21:24:01.265Z,61.55
2023-03-27T21:26:50.560Z,62.19
2023-03-27T21:29:41.768Z,61.92
2023-03-27T21:32:30.985Z,62.94
2023-03-27T21:35:20.295Z,62.72
2023-03-27T21:38:09.758Z,62.71
2023-03-27T21:40:59.036Z,62.36
2023-03-27T21:43:48.311Z,62.70
2023-03-27T21:46:38.980Z,62.73
2023-03-27T21:49:28.585Z,62.65
2023-03-27T21:52:17.769Z,62.87
2023-03-27T21:55:10.744Z,62.73
2023-03-27T21:57:59.927Z,62.78
2023-03-27T22:00:49.537Z,62.95
2023-03-27T22:03:40.141Z,62.55
2023-03-27T22:06:29.924Z,62.58
2023-03-27T22:09:19.235Z,62.81
2023-03-27T22:12:08.955Z,62.61
2023-03-27T22:14:58.243Z,62.50
2023-03-27T22:17:49.560Z,62.79
2023-03-27T22:20:41.025Z,63.07
2023-03-27T22:23:30.390Z,63.26
2023-03-27T22:26:20.625Z,63.02
2023-03-27T22:29:13.286Z,63.14
2023-03-27T22:32:02.561Z,63.38
2023-03-27T22:34:52.139Z,63.11
2023-03-27T22:37:42.898Z,63.57
2023-03-27T22:40:32.147Z,63.46
2023-03-27T22:43:22.919Z,63.59
2023-03-27T22:46:15.302Z,64.05
2023-03-27T22:49:04.802Z,63.95
2023-03-27T22:51:57.483Z,63.52
2023-03-27T22:54:50.327Z,63.91
2023-03-27T22:57:39.679Z,63.96
2023-03-27T23:00:28.962Z,63.92
2023-03-27T23:03:22.801Z,64.16
2023-03-27T23:06:19.156Z,63.69
2023-03-27T23:09:10.138Z,63.73
2023-03-27T23:12:03.936Z,63.85
2023-03-27T23:14:53.391Z,63.67
2023-03-27T23:17:42.850Z,63.58
2023-03-27T23:20:34.736Z,63.62
2023-03-27T23:23:26.875Z,63.74
2023-03-27T23:26:18.310Z,63.75
2023-03-27T23:29:11.816Z,64.15
2023-03-27T23:32:04.204Z,64.21
2023-03-27T23:34:53.429Z,64.46
2023-03-27T23:37:42.765Z,64.05
2023-03-27T23:40:34.771Z,63.89
2023-03-27T23:43:24.787Z,64.80
2023-03-27T23:46:15.704Z,64.84
2023-03-27T23:49:05.063Z,64.95
2023-03-27T23:51:54.607Z,65.00
2023-03-27T23:54:43.833Z,65.36
2023-03-27T23:57:33.071Z,65.27
